createdAt,value
2023-05-11T00:01:06.018Z,94798.69
2023-05-11T00:03:07.828Z,94798.22
2023-05-11T00:05:09.823Z,94803.28
2023-05-11T00:07:11.377Z,94804.59
2023-05-11T00:09:13.020Z,94799.84
2023-05-11T00:11:14.792Z,94803.91
2023-05-11T00:13:16.744Z,94803.19
2023-05-11T00:15:18.402Z,94794.97
2023-05-11T00:17:20.667Z,94800.03
2023-05-11T00:19:22.393Z,94795.03
2023-05-11T00:21:24.009Z,94797.44
2023-05-11T00:23:25.618Z,94805.31
2023-05-11T00:25:27.524Z,94801.88
2023-05-11T00:27:29.131Z,94797.13
2023-05-11T00:29:30.861Z,94805.97
2023-05-11T00:31:32.781Z,94801.69
2023-05-11T00:33:34.408Z,94806.44
2023-05-11T00:35:36.127Z,94803.88
2023-05-11T00:37:38.613Z,94806.59
2023-05-11T00:39:40.783Z,94806.66
2023-05-11T00:41:42.426Z,94809.72
2023-05-11T00:43:43.993Z,94811.69
2023-05-11T00:45:48.151Z,94810.53
2023-05-11T00:47:50.055Z,94812.63
2023-05-11T00:49:53.373Z,94811.34
2023-05-11T00:51:55.276Z,94816.09
2023-05-11T00:53:57.202Z,94814.63
2023-05-11T00:55:59.247Z,94811.84
2023-05-11T00:58:00.860Z,94814.00
2023-05-11T01:00:03.777Z,94816.44
2023-05-11T01:02:05.620Z,94819.91
2023-05-11T01:04:07.501Z,94816.53
2023-05-11T01:06:17.206Z,94819.16
2023-05-11T01:08:22.705Z,94814.59
2023-05-11T01:10:31.430Z,94816.75
2023-05-11T01:12:48.231Z,94808.13
2023-05-11T01:15:15.144Z,94813.00
2023-05-11T01:17:24.163Z,94811.03
2023-05-11T01:19:47.694Z,94814.59
2023-05-11T01:21:50.909Z,94815.41
2023-05-11T01:24:07.431Z,94814.91
2023-05-11T01:26:11.551Z,94815.19
2023-05-11T01:28:58.127Z,94811.22
2023-05-11T01:31:11.862Z,94819.44
2023-05-11T01:33:14.721Z,94808.47
2023-05-11T01:35:21.493Z,94813.63
2023-05-11T01:37:23.993Z,94816.03
2023-05-11T01:39:32.371Z,94816.84
2023-05-11T01:41:35.069Z,94803.47
2023-05-11T01:43:37.800Z,94812.50
2023-05-11T01:45:43.160Z,94808.31
2023-05-11T01:47:45.566Z,94813.63
2023-05-11T01:49:47.583Z,94814.75
2023-05-11T01:51:51.514Z,94805.63
2023-05-11T01:53:53.632Z,94818.84
2023-05-11T01:55:56.486Z,94808.53
2023-05-11T01:57:58.951Z,94814.69
2023-05-11T02:00:01.449Z,94817.09
2023-05-11T02:02:04.197Z,94809.47
2023-05-11T02:04:06.066Z,94803.78
2023-05-11T02:06:08.013Z,94808.34
2023-05-11T02:08:10.357Z,94808.19
2023-05-11T02:10:13.969Z,94803.78
2023-05-11T02:12:18.550Z,94800.19
2023-05-11T02:14:21.760Z,94802.78
2023-05-11T02:16:24.544Z,94796.59
2023-05-11T02:18:27.425Z,94795.34
2023-05-11T02:20:29.011Z,94795.84
2023-05-11T02:22:30.937Z,94792.78
2023-05-11T02:24:32.703Z,94787.03
2023-05-11T02:26:34.441Z,94799.00
2023-05-11T02:28:36.196Z,94809.47
2023-05-11T02:30:48.549Z,94801.91
2023-05-11T02:32:53.035Z,94792.66
2023-05-11T02:34:59.187Z,94797.22
2023-05-11T02:37:02.858Z,94798.03
2023-05-11T02:39:08.186Z,94790.34
2023-05-11T02:41:13.205Z,94796.78
2023-05-11T02:43:20.730Z,94790.34
2023-05-11T02:45:23.378Z,94789.88
2023-05-11T02:47:28.786Z,94805.78
2023-05-11T02:49:32.035Z,94800.56
2023-05-11T02:51:36.933Z,94794.63
2023-05-11T02:53:40.877Z,94797.38
2023-05-11T02:55:42.949Z,94805.06
2023-05-11T02:57:45.546Z,94800.50
2023-05-11T02:59:47.266Z,94795.06
2023-05-11T03:01:49.375Z,94803.94
2023-05-11T03:03:51.311Z,94795.88
2023-05-11T03:05:53.122Z,94798.56
2023-05-11T03:07:57.961Z,94797.44
2023-05-11T03:10:00.409Z,94798.84
2023-05-11T03:12:03.016Z,94788.94
2023-05-11T03:14:04.767Z,94793.69
2023-05-11T03:16:06.828Z,94803.44
2023-05-11T03:18:08.492Z,94798.63
2023-05-11T03:20:10.592Z,94798.94
2023-05-11T03:22:12.182Z,94809.31
2023-05-11T03:24:14.177Z,94804.22
2023-05-11T03:26:18.018Z,94804.09
2023-05-11T03:28:19.481Z,94804.91
2023-05-11T03:30:22.111Z,94805.81
2023-05-11T03:32:24.318Z,94806.56
2023-05-11T03:34:26.167Z,94810.00
2023-05-11T03:36:28.158Z,94809.53
2023-05-11T03:38:30.882Z,94807.00
2023-05-11T03:40:34.647Z,94805.44
2023-05-11T03:42:36.579Z,94810.81
2023-05-11T03:44:38.596Z,94817.44
2023-05-11T03:46:41.346Z,94818.19
2023-05-11T03:48:43.551Z,94813.19
2023-05-11T03:50:45.390Z,94817.53
2023-05-11T03:52:48.112Z,94824.56
2023-05-11T03:54:49.815Z,94817.03
2023-05-11T03:56:52.299Z,94827.00
2023-05-11T03:58:54.332Z,94828.88
2023-05-11T04:00:56.125Z,94818.78
2023-05-11T04:02:57.762Z,94822.34
2023-05-11T04:04:59.316Z,94820.00
2023-05-11T04:07:01.314Z,94823.88
2023-05-11T04:09:02.949Z,94825.91
2023-05-11T04:11:04.573Z,94827.63
2023-05-11T04:13:06.244Z,94832.63
2023-05-11T04:15:08.214Z,94831.16
2023-05-11T04:17:10.251Z,94829.81
2023-05-11T04:19:11.839Z,94833.78
2023-05-11T04:21:13.432Z,94833.78
2023-05-11T04:23:15.798Z,94835.28
2023-05-11T04:25:17.798Z,94839.34
2023-05-11T04:27:19.451Z,94846.19
2023-05-11T04:29:21.038Z,94849.88
2023-05-11T04:31:22.698Z,94848.00
2023-05-11T04:33:24.441Z,94850.22
2023-05-11T04:35:26.101Z,94858.13
2023-05-11T04:37:27.711Z,94848.34
2023-05-11T04:39:29.319Z,94857.53
2023-05-11T04:41:30.877Z,94846.97
2023-05-11T04:43:32.846Z,94851.06
2023-05-11T04:45:34.407Z,94848.44
2023-05-11T04:47:36.032Z,94854.72
2023-05-11T04:49:37.724Z,94856.69
2023-05-11T04:51:39.465Z,94856.38
2023-05-11T04:53:42.196Z,94861.38
2023-05-11T04:55:44.055Z,94863.28
2023-05-11T04:57:45.648Z,94857.69
2023-05-11T04:59:47.286Z,94865.00
2023-05-11T05:01:48.961Z,94868.13
2023-05-11T05:03:50.901Z,94864.09
2023-05-11T05:05:52.606Z,94865.34
2023-05-11T05:07:54.317Z,94872.34
2023-05-11T05:09:55.927Z,94873.25
2023-05-11T05:11:57.487Z,94877.59
2023-05-11T05:13:59.064Z,94877.84
2023-05-11T05:16:00.669Z,94886.00
2023-05-11T05:18:02.328Z,94889.88
2023-05-11T05:20:04.816Z,94884.78
2023-05-11T05:22:06.858Z,94886.44
2023-05-11T05:24:11.362Z,94889.06
2023-05-11T05:26:12.992Z,94879.69
2023-05-11T05:28:14.571Z,94888.31
2023-05-11T05:30:16.673Z,94885.41
2023-05-11T05:32:18.392Z,94878.75
2023-05-11T05:34:19.950Z,94887.56
2023-05-11T05:36:21.548Z,94883.25
2023-05-11T05:38:23.167Z,94886.00
2023-05-11T05:40:24.778Z,94878.75
2023-05-11T05:42:26.379Z,94875.59
2023-05-11T05:44:27.997Z,94890.50
2023-05-11T05:46:29.710Z,94885.94
2023-05-11T05:48:31.328Z,94883.81
2023-05-11T05:50:33.317Z,94887.03
2023-05-11T05:52:34.953Z,94880.31
2023-05-11T05:54:36.524Z,94894.38
2023-05-11T05:56:38.092Z,94895.41
2023-05-11T05:58:39.853Z,94895.63
2023-05-11T06:00:41.665Z,94899.72
2023-05-11T06:02:43.328Z,94888.22
2023-05-11T06:04:44.980Z,94892.06
2023-05-11T06:06:46.730Z,94899.59
2023-05-11T06:08:48.333Z,94896.03
2023-05-11T06:10:49.921Z,94901.19
2023-05-11T06:12:51.622Z,94911.44
2023-05-11T06:14:53.208Z,94908.94
2023-05-11T06:16:54.819Z,94912.25
2023-05-11T06:18:56.770Z,94909.53
2023-05-11T06:20:59.314Z,94918.44
2023-05-11T06:23:00.911Z,94913.72
2023-05-11T06:25:03.033Z,94913.94
2023-05-11T06:27:04.611Z,94914.00
2023-05-11T06:29:06.319Z,94919.34
2023-05-11T06:31:07.983Z,94917.00
2023-05-11T06:33:09.601Z,94917.28
2023-05-11T06:35:11.298Z,94917.19
2023-05-11T06:37:16.232Z,94921.00
2023-05-11T06:39:17.879Z,94912.63
2023-05-11T06:41:19.479Z,94922.16
2023-05-11T06:43:21.626Z,94920.06
2023-05-11T06:45:23.277Z,94910.94
2023-05-11T06:47:25.025Z,94918.41
2023-05-11T06:49:27.053Z,94921.91
2023-05-11T06:51:28.645Z,94918.13
2023-05-11T06:53:30.238Z,94917.84
2023-05-11T06:55:31.826Z,94914.19
2023-05-11T06:57:33.456Z,94915.09
2023-05-11T06:59:35.128Z,94914.41
2023-05-11T07:01:36.807Z,94915.50
2023-05-11T07:03:38.365Z,94918.75
2023-05-11T07:05:40.218Z,94916.44
2023-05-11T07:07:42.153Z,94926.97
2023-05-11T07:09:43.846Z,94916.06
2023-05-11T07:11:45.532Z,94918.91
2023-05-11T07:13:47.187Z,94922.34
2023-05-11T07:15:49.817Z,94926.97
2023-05-11T07:17:52.735Z,94921.69
2023-05-11T07:19:55.530Z,94922.97
2023-05-11T07:21:57.213Z,94923.22
2023-05-11T07:23:59.384Z,94928.06
2023-05-11T07:26:01.172Z,94921.91
2023-05-11T07:28:03.560Z,94922.38
2023-05-11T07:30:05.945Z,94923.19
2023-05-11T07:32:07.551Z,94929.41
2023-05-11T07:34:09.161Z,94921.34
2023-05-11T07:36:10.783Z,94930.38
2023-05-11T07:38:13.837Z,94936.78
2023-05-11T07:40:15.551Z,94928.03
2023-05-11T07:42:17.235Z,94920.50
2023-05-11T07:44:18.781Z,94934.09
2023-05-11T07:46:20.393Z,94931.06
2023-05-11T07:48:22.346Z,94931.78
2023-05-11T07:50:24.623Z,94935.75
2023-05-11T07:52:26.812Z,94924.94
2023-05-11T07:54:28.406Z,94941.63
2023-05-11T07:56:29.996Z,94932.44
2023-05-11T07:58:32.599Z,94940.53
2023-05-11T08:00:34.491Z,94938.41
2023-05-11T08:02:36.273Z,94945.00
2023-05-11T08:04:38.028Z,94940.94
2023-05-11T08:06:40.085Z,94930.34
2023-05-11T08:08:41.809Z,94930.63
2023-05-11T08:10:43.440Z,94940.25
2023-05-11T08:12:44.991Z,94937.13
2023-05-11T08:14:46.527Z,94943.56
2023-05-11T08:16:49.668Z,94934.91
2023-05-11T08:18:51.383Z,94932.63
2023-05-11T08:20:53.654Z,94931.78
2023-05-11T08:22:55.263Z,94935.06
2023-05-11T08:24:56.873Z,94934.25
2023-05-11T08:26:58.573Z,94933.41
2023-05-11T08:29:00.370Z,94923.56
2023-05-11T08:31:01.992Z,94931.28
2023-05-11T08:33:36.589Z,94926.69
2023-05-11T08:35:40.337Z,94936.38
2023-05-11T08:37:41.887Z,94935.38
2023-05-11T08:39:47.593Z,94934.38
2023-05-11T08:41:51.659Z,94939.50
2023-05-11T08:43:55.241Z,94932.75
2023-05-11T08:46:01.727Z,94937.22
2023-05-11T08:48:04.355Z,94939.19
2023-05-11T08:50:06.723Z,94941.63
2023-05-11T08:52:09.370Z,94935.06
2023-05-11T08:54:11.208Z,94926.38
2023-05-11T08:56:13.292Z,94925.38
2023-05-11T08:58:19.583Z,94924.22
2023-05-11T09:00:23.249Z,94921.44
2023-05-11T09:02:25.606Z,94921.78
2023-05-11T09:04:27.507Z,94920.78
2023-05-11T09:06:29.720Z,94927.16
2023-05-11T09:08:31.868Z,94913.84
2023-05-11T09:10:33.526Z,94916.25
2023-05-11T09:12:35.894Z,94912.28
2023-05-11T09:14:37.577Z,94912.66
2023-05-11T09:16:39.363Z,94923.00
2023-05-11T09:18:48.502Z,94913.19
2023-05-11T09:20:50.729Z,94924.22
2023-05-11T09:22:53.319Z,94919.31
2023-05-11T09:24:55.010Z,94920.13
2023-05-11T09:27:09.791Z,94928.16
2023-05-11T09:29:11.757Z,94926.69
2023-05-11T09:31:13.461Z,94919.59
2023-05-11T09:33:21.818Z,94925.13
2023-05-11T09:35:33.942Z,94925.25
2023-05-11T09:37:35.521Z,94911.75
2023-05-11T09:39:44.154Z,94919.53
2023-05-11T09:42:16.828Z,94912.16
2023-05-11T09:44:18.696Z,94922.09
2023-05-11T09:46:23.322Z,94916.59
2023-05-11T09:48:27.423Z,94916.53
2023-05-11T09:50:35.483Z,94918.84
2023-05-11T09:52:49.960Z,94914.03
2023-05-11T09:54:52.302Z,94904.94
2023-05-11T09:56:56.782Z,94904.50
2023-05-11T09:58:59.400Z,94907.81
2023-05-11T10:01:00.967Z,94900.72
2023-05-11T10:03:08.093Z,94901.31
2023-05-11T10:05:13.573Z,94895.38
2023-05-11T10:07:30.475Z,94905.66
2023-05-11T10:09:33.093Z,94907.28
2023-05-11T10:11:34.910Z,94904.50
2023-05-11T10:13:37.945Z,94891.28
2023-05-11T10:15:39.543Z,94876.91
2023-05-11T10:17:44.712Z,94892.84
2023-05-11T10:19:47.598Z,94888.41
2023-05-11T10:21:50.137Z,94883.59
2023-05-11T10:23:51.732Z,94890.84
2023-05-11T10:25:54.036Z,94884.91
2023-05-11T10:27:55.769Z,94887.44
2023-05-11T10:29:58.613Z,94888.44
2023-05-11T10:32:01.734Z,94886.56
2023-05-11T10:34:04.517Z,94879.72
2023-05-11T10:36:08.220Z,94874.59
2023-05-11T10:38:10.079Z,94859.16
2023-05-11T10:40:12.013Z,94861.91
2023-05-11T10:42:13.604Z,94867.38
2023-05-11T10:44:33.944Z,94866.91
2023-05-11T10:46:54.036Z,94868.16
2023-05-11T10:49:12.106Z,94863.47
2023-05-11T10:51:19.475Z,94867.38
2023-05-11T10:53:33.427Z,94870.56
2023-05-11T10:56:06.329Z,94870.38
2023-05-11T10:58:10.932Z,94874.03
2023-05-11T11:00:30.912Z,94871.78
2023-05-11T11:02:32.630Z,94871.88
2023-05-11T11:04:51.717Z,94868.72
2023-05-11T11:07:06.668Z,94863.31
2023-05-11T11:09:13.661Z,94860.50
2023-05-11T11:11:42.588Z,94863.88
2023-05-11T11:13:57.031Z,94862.69
2023-05-11T11:16:08.297Z,94853.84
2023-05-11T11:18:29.957Z,94868.22
2023-05-11T11:20:52.317Z,94862.50
2023-05-11T11:22:54.012Z,94854.50
2023-05-11T11:24:55.581Z,94870.16
2023-05-11T11:26:57.366Z,94865.59
2023-05-11T11:29:01.758Z,94862.84
2023-05-11T11:31:29.242Z,94862.03
2023-05-11T11:33:32.834Z,94854.56
2023-05-11T11:35:43.659Z,94848.09
2023-05-11T11:38:04.172Z,94851.72
2023-05-11T11:40:14.575Z,94849.19
2023-05-11T11:42:37.914Z,94844.44
2023-05-11T11:44:40.774Z,94861.88
2023-05-11T11:46:42.510Z,94854.06
2023-05-11T11:48:44.112Z,94851.94
2023-05-11T11:50:47.949Z,94853.34
2023-05-11T11:52:49.639Z,94855.84
2023-05-11T11:54:51.425Z,94846.13
2023-05-11T11:56:53.411Z,94854.47
2023-05-11T11:58:59.504Z,94857.38
2023-05-11T12:01:01.343Z,94848.94
2023-05-11T12:03:03.664Z,94851.72
2023-05-11T12:05:18.775Z,94846.91
2023-05-11T12:07:21.467Z,94847.03
2023-05-11T12:09:23.519Z,94850.78
2023-05-11T12:11:26.317Z,94845.44
2023-05-11T12:13:28.474Z,94849.34
2023-05-11T12:15:32.390Z,94841.56
2023-05-11T12:17:38.764Z,94834.66
2023-05-11T12:19:42.208Z,94834.44
2023-05-11T12:21:45.469Z,94834.44
2023-05-11T12:23:56.545Z,94826.03
2023-05-11T12:26:07.451Z,94836.66
2023-05-11T12:28:09.896Z,94827.59
2023-05-11T12:30:19.959Z,94831.94
2023-05-11T12:32:29.463Z,94835.72
2023-05-11T12:34:31.166Z,94819.09
2023-05-11T12:36:34.520Z,94818.63
2023-05-11T12:38:46.288Z,94827.31
2023-05-11T12:40:52.107Z,94816.44
2023-05-11T12:42:56.077Z,94814.91
2023-05-11T12:44:57.816Z,94813.16
2023-05-11T12:46:59.534Z,94812.78
2023-05-11T12:49:01.206Z,94816.44
2023-05-11T12:51:02.834Z,94814.75
2023-05-11T12:53:14.065Z,94815.13
2023-05-11T12:55:27.094Z,94806.94
2023-05-11T12:57:30.325Z,94807.31
2023-05-11T12:59:37.620Z,94804.09
2023-05-11T13:01:39.324Z,94796.72
2023-05-11T13:03:45.900Z,94794.38
2023-05-11T13:05:47.924Z,94794.22
2023-05-11T13:07:58.662Z,94788.06
2023-05-11T13:10:01.348Z,94788.00
2023-05-11T13:12:18.234Z,94789.41
2023-05-11T13:14:19.766Z,94781.91
2023-05-11T13:16:29.408Z,94782.66
2023-05-11T13:18:31.441Z,94781.44
2023-05-11T13:20:34.253Z,94780.09
2023-05-11T13:22:36.233Z,94791.22
2023-05-11T13:24:37.860Z,94792.34
2023-05-11T13:26:39.422Z,94780.44
2023-05-11T13:28:41.238Z,94785.09
2023-05-11T13:30:43.577Z,94781.38
2023-05-11T13:32:45.176Z,94772.66
2023-05-11T13:34:46.910Z,94773.75
2023-05-11T13:36:48.674Z,94777.09
2023-05-11T13:38:51.559Z,94778.81
2023-05-11T13:40:53.186Z,94776.41
2023-05-11T13:42:54.843Z,94785.63
2023-05-11T13:44:56.445Z,94781.47
2023-05-11T13:46:58.126Z,94781.41
2023-05-11T13:49:00.478Z,94783.06
2023-05-11T13:51:02.114Z,94773.38
2023-05-11T13:53:03.726Z,94777.78
2023-05-11T13:55:05.873Z,94773.34
2023-05-11T13:57:07.662Z,94770.34
2023-05-11T13:59:09.496Z,94771.72
2023-05-11T14:01:11.162Z,94772.09
2023-05-11T14:03:13.096Z,94764.78
2023-05-11T14:05:14.886Z,94763.78
2023-05-11T14:07:16.537Z,94762.44
2023-05-11T14:09:18.272Z,94758.50
2023-05-11T14:11:21.031Z,94758.50
2023-05-11T14:13:22.939Z,94760.78
2023-05-11T14:15:24.532Z,94762.59
2023-05-11T14:17:26.157Z,94759.56
2023-05-11T14:19:27.916Z,94762.72
2023-05-11T14:21:29.573Z,94762.03
2023-05-11T14:23:31.195Z,94759.22
2023-05-11T14:25:32.835Z,94756.06
2023-05-11T14:27:34.503Z,94760.53
2023-05-11T14:29:37.747Z,94758.59
2023-05-11T14:31:42.137Z,94764.53
2023-05-11T14:33:43.738Z,94760.13
2023-05-11T14:35:45.641Z,94760.63
2023-05-11T14:37:47.681Z,94757.47
2023-05-11T14:39:49.308Z,94752.63
2023-05-11T14:41:50.889Z,94759.22
2023-05-11T14:43:52.614Z,94757.78
2023-05-11T14:45:54.602Z,94762.81
2023-05-11T14:47:56.384Z,94761.31
2023-05-11T14:49:58.409Z,94757.28
2023-05-11T14:51:59.991Z,94768.16
2023-05-11T14:54:01.625Z,94760.25
2023-05-11T14:56:03.589Z,94759.38
2023-05-11T14:58:10.111Z,94757.72
2023-05-11T15:00:13.310Z,94751.66
2023-05-11T15:02:14.908Z,94764.00
2023-05-11T15:04:17.050Z,94759.09
2023-05-11T15:06:22.438Z,94761.00
2023-05-11T15:08:30.227Z,94757.25
2023-05-11T15:10:32.325Z,94761.00
2023-05-11T15:12:33.925Z,94753.97
2023-05-11T15:14:35.871Z,94756.09
2023-05-11T15:16:38.026Z,94750.81
2023-05-11T15:18:41.052Z,94757.94
2023-05-11T15:20:44.620Z,94759.72
2023-05-11T15:22:46.252Z,94753.34
2023-05-11T15:24:48.586Z,94760.75
2023-05-11T15:26:50.216Z,94751.41
2023-05-11T15:28:51.910Z,94746.31
2023-05-11T15:30:53.493Z,94752.72
2023-05-11T15:32:55.177Z,94750.78
2023-05-11T15:34:59.736Z,94752.28
2023-05-11T15:37:02.011Z,94752.75
2023-05-11T15:39:04.169Z,94755.72
2023-05-11T15:41:05.872Z,94753.38
2023-05-11T15:43:07.745Z,94744.53
2023-05-11T15:45:09.399Z,94751.69
2023-05-11T15:47:10.969Z,94758.81
2023-05-11T15:49:12.541Z,94759.44
2023-05-11T15:51:14.218Z,94751.41
2023-05-11T15:53:15.822Z,94755.50
2023-05-11T15:55:17.535Z,94760.91
2023-05-11T15:57:19.321Z,94767.81
2023-05-11T15:59:21.102Z,94763.38
2023-05-11T16:01:22.850Z,94764.06
2023-05-11T16:03:24.990Z,94759.44
2023-05-11T16:05:28.362Z,94758.47
2023-05-11T16:07:29.929Z,94756.50
2023-05-11T16:09:31.781Z,94757.47
2023-05-11T16:11:33.584Z,94757.81
2023-05-11T16:13:35.175Z,94761.25
2023-05-11T16:15:36.831Z,94762.44
2023-05-11T16:17:38.657Z,94763.09
2023-05-11T16:19:40.275Z,94768.34
2023-05-11T16:21:43.681Z,94762.91
2023-05-11T16:23:45.817Z,94767.97
2023-05-11T16:25:47.861Z,94762.56
2023-05-11T16:27:49.494Z,94763.38
2023-05-11T16:29:52.372Z,94765.03
2023-05-11T16:31:54.056Z,94761.56
2023-05-11T16:33:55.680Z,94760.44
2023-05-11T16:35:57.379Z,94753.69
2023-05-11T16:37:59.860Z,94766.50
2023-05-11T16:40:02.046Z,94757.44
2023-05-11T16:42:03.810Z,94757.16
2023-05-11T16:44:05.561Z,94761.91
2023-05-11T16:46:08.548Z,94763.38
2023-05-11T16:48:10.552Z,94766.50
2023-05-11T16:50:16.228Z,94771.25
2023-05-11T16:52:18.082Z,94766.47
2023-05-11T16:54:20.550Z,94773.22
2023-05-11T16:56:22.311Z,94775.34
2023-05-11T16:58:24.575Z,94772.28
2023-05-11T17:00:26.619Z,94774.38
2023-05-11T17:02:28.241Z,94765.34
2023-05-11T17:04:29.841Z,94769.13
2023-05-11T17:06:32.043Z,94774.38
2023-05-11T17:08:34.322Z,94777.16
2023-05-11T17:10:35.900Z,94775.19
2023-05-11T17:12:37.512Z,94781.47
2023-05-11T17:14:39.077Z,94784.75
2023-05-11T17:16:40.898Z,94784.75
2023-05-11T17:18:42.664Z,94785.81
2023-05-11T17:20:44.324Z,94783.31
2023-05-11T17:22:45.867Z,94784.28
2023-05-11T17:24:47.473Z,94783.09
2023-05-11T17:26:49.106Z,94787.91
2023-05-11T17:28:50.905Z,94780.34
2023-05-11T17:30:52.835Z,94784.28
2023-05-11T17:32:54.787Z,94793.16
2023-05-11T17:34:56.543Z,94786.09
2023-05-11T17:36:58.575Z,94784.75
2023-05-11T17:39:01.338Z,94793.28
2023-05-11T17:41:06.615Z,94784.25
2023-05-11T17:43:08.286Z,94788.56
2023-05-11T17:45:10.279Z,94788.22
2023-05-11T17:47:11.869Z,94786.41
2023-05-11T17:49:13.499Z,94783.97
2023-05-11T17:51:15.103Z,94779.88
2023-05-11T17:53:16.715Z,94789.53
2023-05-11T17:55:19.324Z,94782.16
2023-05-11T17:57:23.366Z,94784.13
2023-05-11T17:59:24.897Z,94787.78
2023-05-11T18:01:27.687Z,94784.66
2023-05-11T18:03:29.578Z,94784.31
2023-05-11T18:05:44.709Z,94788.44
2023-05-11T18:07:49.931Z,94779.41
2023-05-11T18:09:51.678Z,94783.19
2023-05-11T18:11:53.217Z,94785.97
2023-05-11T18:13:54.976Z,94792.19
2023-05-11T18:15:57.497Z,94786.31
2023-05-11T18:17:59.162Z,94788.75
2023-05-11T18:20:00.788Z,94795.97
2023-05-11T18:22:02.410Z,94791.38
2023-05-11T18:24:04.923Z,94794.50
2023-05-11T18:26:06.915Z,94793.34
2023-05-11T18:28:08.644Z,94798.09
2023-05-11T18:30:10.806Z,94801.22
2023-05-11T18:32:12.420Z,94807.34
2023-05-11T18:34:13.992Z,94806.31
2023-05-11T18:36:16.283Z,94811.06
2023-05-11T18:38:18.066Z,94809.09
2023-05-11T18:40:20.161Z,94807.78
2023-05-11T18:42:21.998Z,94808.94
2023-05-11T18:44:23.645Z,94814.19
2023-05-11T18:46:25.492Z,94822.91
2023-05-11T18:48:27.130Z,94811.88
2023-05-11T18:50:29.883Z,94816.16
2023-05-11T18:52:31.449Z,94817.47
2023-05-11T18:54:33.837Z,94818.56
2023-05-11T18:56:35.718Z,94824.84
2023-05-11T18:58:37.558Z,94812.66
2023-05-11T19:00:39.528Z,94815.50
2023-05-11T19:02:41.155Z,94818.75
2023-05-11T19:04:42.954Z,94821.22
2023-05-11T19:06:44.547Z,94822.38
2023-05-11T19:08:46.181Z,94824.84
2023-05-11T19:10:48.320Z,94822.38
2023-05-11T19:12:50.377Z,94818.94
2023-05-11T19:14:55.407Z,94821.41
2023-05-11T19:16:57.053Z,94821.56
2023-05-11T19:18:59.525Z,94821.72
2023-05-11T19:21:02.902Z,94824.03
2023-05-11T19:23:04.508Z,94814.66
2023-05-11T19:25:07.321Z,94826.31
2023-05-11T19:27:09.028Z,94828.94
2023-05-11T19:29:12.248Z,94825.53
2023-05-11T19:31:13.913Z,94827.00
2023-05-11T19:33:15.537Z,94824.88
2023-05-11T19:35:18.433Z,94823.25
2023-05-11T19:37:20.148Z,94823.25
2023-05-11T19:39:21.906Z,94830.78
2023-05-11T19:41:23.474Z,94825.22
2023-05-11T19:43:25.122Z,94828.16
2023-05-11T19:45:26.737Z,94824.22
2023-05-11T19:47:28.676Z,94826.84
2023-05-11T19:49:30.309Z,94827.50
2023-05-11T19:51:32.071Z,94827.50
2023-05-11T19:53:33.803Z,94825.88
2023-05-11T19:55:35.452Z,94817.50
2023-05-11T19:57:37.740Z,94819.47
2023-05-11T19:59:39.355Z,94817.00
2023-05-11T20:01:40.980Z,94822.75
2023-05-11T20:03:42.644Z,94822.75
2023-05-11T20:05:44.458Z,94822.75
2023-05-11T20:07:46.042Z,94818.00
2023-05-11T20:09:47.622Z,94817.63
2023-05-11T20:11:49.277Z,94825.53
2023-05-11T20:13:51.166Z,94820.28
2023-05-11T20:15:52.842Z,94827.00
2023-05-11T20:17:54.538Z,94822.41
2023-05-11T20:19:56.373Z,94832.75
2023-05-11T20:21:58.514Z,94837.69
2023-05-11T20:24:00.146Z,94833.44
2023-05-11T20:26:01.765Z,94835.44
2023-05-11T20:28:03.676Z,94839.69
2023-05-11T20:30:06.209Z,94832.16
2023-05-11T20:32:08.098Z,94828.38
2023-05-11T20:34:09.791Z,94830.19
2023-05-11T20:36:11.507Z,94827.88
2023-05-11T20:38:13.112Z,94824.94
2023-05-11T20:40:14.773Z,94834.78
2023-05-11T20:42:16.384Z,94830.34
2023-05-11T20:44:18.541Z,94832.81
2023-05-11T20:46:20.742Z,94832.16
2023-05-11T20:48:32.460Z,94830.84
2023-05-11T20:50:40.429Z,94834.13
2023-05-11T20:52:42.035Z,94831.19
2023-05-11T20:54:43.756Z,94841.34
2023-05-11T20:56:45.614Z,94836.78
2023-05-11T20:58:47.513Z,94836.25
2023-05-11T21:00:49.288Z,94834.94
2023-05-11T21:02:51.076Z,94832.81
2023-05-11T21:04:53.272Z,94832.16
2023-05-11T21:06:55.338Z,94838.56
2023-05-11T21:08:56.968Z,94840.38
2023-05-11T21:10:58.548Z,94846.94
2023-05-11T21:13:01.869Z,94841.34
2023-05-11T21:15:03.743Z,94841.34
2023-05-11T21:17:05.677Z,94836.06
2023-05-11T21:19:07.682Z,94848.53
2023-05-11T21:21:09.936Z,94838.66
2023-05-11T21:23:11.626Z,94845.06
2023-05-11T21:25:13.359Z,94849.47
2023-05-11T21:27:15.095Z,94838.03
2023-05-11T21:29:16.720Z,94840.66
2023-05-11T21:31:18.393Z,94852.94
2023-05-11T21:33:20.710Z,94843.94
2023-05-11T21:35:22.366Z,94840.13
2023-05-11T21:37:24.026Z,94849.97
2023-05-11T21:39:25.735Z,94844.56
2023-05-11T21:41:27.486Z,94856.72
2023-05-11T21:43:29.109Z,94847.84
2023-05-11T21:45:30.700Z,94845.38
2023-05-11T21:47:32.472Z,94851.75
2023-05-11T21:49:36.341Z,94857.31
2023-05-11T21:51:38.454Z,94848.63
2023-05-11T21:53:40.562Z,94843.25
2023-05-11T21:55:42.122Z,94854.03
2023-05-11T21:57:43.803Z,94847.81
2023-05-11T21:59:45.369Z,94854.38
2023-05-11T22:01:49.132Z,94864.50
2023-05-11T22:03:50.957Z,94859.09
2023-05-11T22:05:52.613Z,94858.97
2023-05-11T22:08:00.383Z,94855.03
2023-05-11T22:10:09.341Z,94853.34
2023-05-11T22:12:10.925Z,94855.63
2023-05-11T22:14:12.561Z,94857.59
2023-05-11T22:16:14.225Z,94843.78
2023-05-11T22:18:15.879Z,94853.00
2023-05-11T22:20:18.137Z,94853.50
2023-05-11T22:22:20.015Z,94849.41
2023-05-11T22:24:21.768Z,94853.31
2023-05-11T22:26:23.349Z,94853.28
2023-05-11T22:28:24.958Z,94853.28
2023-05-11T22:30:26.558Z,94842.75
2023-05-11T22:32:28.123Z,94857.03
2023-05-11T22:34:29.683Z,94853.88
2023-05-11T22:36:31.315Z,94860.72
2023-05-11T22:38:34.324Z,94856.66
2023-05-11T22:40:35.946Z,94855.81
2023-05-11T22:42:38.119Z,94855.69
2023-05-11T22:44:40.476Z,94855.53
2023-05-11T22:46:42.044Z,94856.44
2023-05-11T22:48:43.795Z,94858.06
2023-05-11T22:50:47.518Z,94861.16
2023-05-11T22:52:49.094Z,94858.28
2023-05-11T22:54:58.550Z,94855.63
2023-05-11T22:57:01.590Z,94850.22
2023-05-11T22:59:04.679Z,94853.34
2023-05-11T23:01:06.377Z,94850.44
2023-05-11T23:03:08.348Z,94853.13
2023-05-11T23:05:10.211Z,94850.19
2023-05-11T23:07:12.729Z,94859.16
2023-05-11T23:09:16.011Z,94854.22
2023-05-11T23:11:17.598Z,94849.63
2023-05-11T23:13:19.815Z,94855.59
2023-05-11T23:15:21.478Z,94851.72
2023-05-11T23:17:23.204Z,94857.69
2023-05-11T23:19:25.200Z,94851.63
2023-05-11T23:21:26.937Z,94854.19
2023-05-11T23:23:28.501Z,94847.69
2023-05-11T23:25:30.143Z,94845.09
2023-05-11T23:27:31.725Z,94853.47
2023-05-11T23:29:33.368Z,94849.41
2023-05-11T23:31:35.142Z,94854.00
2023-05-11T23:33:36.762Z,94850.69
2023-05-11T23:35:38.508Z,94851.00
2023-05-11T23:37:40.181Z,94850.31
2023-05-11T23:39:41.851Z,94841.97
2023-05-11T23:41:43.445Z,94846.16
2023-05-11T23:43:45.171Z,94851.56
2023-05-11T23:45:46.982Z,94847.88
2023-05-11T23:47:48.721Z,94852.84
2023-05-11T23:49:50.813Z,94848.91
2023-05-11T23:51:52.740Z,94846.38
2023-05-11T23:53:54.338Z,94848.16
2023-05-11T23:55:56.160Z,94845.06
2023-05-11T23:57:58.793Z,94843.53
